sensor_id;sensor_type;location;lat;lon;timestamp;temperature;humidity
20345;DHT22;10330;48.816;9.278;2023-02-14T00:01:21;1.50;99.90
20345;DHT22;10330;48.816;9.278;2023-02-14T00:03:47;1.50;99.90
20345;DHT22;10330;48.816;9.278;2023-02-14T00:06:14;1.50;99.90
20345;DHT22;10330;48.816;9.278;2023-02-14T00:08:41;1.40;99.90
20345;DHT22;10330;48.816;9.278;2023-02-14T00:11:10;1.40;99.90
20345;DHT22;10330;48.816;9.278;2023-02-14T00:13:37;1.40;99.90
20345;DHT22;10330;48.816;9.278;2023-02-14T00:16:04;1.50;99.90
20345;DHT22;10330;48.816;9.278;2023-02-14T00:18:30;1.40;99.90
20345;DHT22;10330;48.816;9.278;2023-02-14T00:21:15;1.40;99.90
20345;DHT22;10330;48.816;9.278;2023-02-14T00:23:41;1.40;99.90
20345;DHT22;10330;48.816;9.278;2023-02-14T00:26:14;1.40;99.90
20345;DHT22;10330;48.816;9.278;2023-02-14T00:28:42;1.40;99.90
20345;DHT22;10330;48.816;9.278;2023-02-14T00:31:08;1.40;99.90
20345;DHT22;10330;48.816;9.278;2023-02-14T00:33:34;1.30;99.90
20345;DHT22;10330;48.816;9.278;2023-02-14T00:36:06;1.30;99.90
20345;DHT22;10330;48.816;9.278;2023-02-14T00:38:32;1.30;99.90
20345;DHT22;10330;48.816;9.278;2023-02-14T00:40:59;1.20;99.90
20345;DHT22;10330;48.816;9.278;2023-02-14T00:43:26;1.20;99.90
20345;DHT22;10330;48.816;9.278;2023-02-14T00:45:52;1.20;99.90
20345;DHT22;10330;48.816;9.278;2023-02-14T00:48:18;1.20;99.90
20345;DHT22;10330;48.816;9.278;2023-02-14T00:50:44;1.20;99.90
20345;DHT22;10330;48.816;9.278;2023-02-14T00:53:12;1.10;99.90
20345;DHT22;10330;48.816;9.278;2023-02-14T00:55:39;1.10;99.90
20345;DHT22;10330;48.816;9.278;2023-02-14T00:58:07;1.10;99.90
20345;DHT22;10330;48.816;9.278;2023-02-14T01:00:33;1.10;99.90
20345;DHT22;10330;48.816;9.278;2023-02-14T01:03:01;1.10;99.90
20345;DHT22;10330;48.816;9.278;2023-02-14T01:05:28;1.10;99.90
20345;DHT22;10330;48.816;9.278;2023-02-14T01:07:55;1.00;99.90
20345;DHT22;10330;48.816;9.278;2023-02-14T01:10:21;1.00;99.90
20345;DHT22;10330;48.816;9.278;2023-02-14T01:12:47;1.00;99.90
20345;DHT22;10330;48.816;9.278;2023-02-14T01:15:13;1.00;99.90
20345;DHT22;10330;48.816;9.278;2023-02-14T01:17:40;1.00;99.90
20345;DHT22;10330;48.816;9.278;2023-02-14T01:20:06;1.00;99.90
20345;DHT22;10330;48.816;9.278;2023-02-14T01:22:36;0.90;99.90
20345;DHT22;10330;48.816;9.278;2023-02-14T01:25:03;0.90;99.90
20345;DHT22;10330;48.816;9.278;2023-02-14T01:27:30;0.90;99.90
20345;DHT22;10330;48.816;9.278;2023-02-14T01:29:57;0.90;99.90
20345;DHT22;10330;48.816;9.278;2023-02-14T01:32:25;0.90;99.90
20345;DHT22;10330;48.816;9.278;2023-02-14T01:34:51;0.90;99.90
20345;DHT22;10330;48.816;9.278;2023-02-14T01:37:17;0.90;99.90
20345;DHT22;10330;48.816;9.278;2023-02-14T01:39:43;0.90;99.90
20345;DHT22;10330;48.816;9.278;2023-02-14T01:42:13;0.90;99.90
20345;DHT22;10330;48.816;9.278;2023-02-14T01:47:07;0.90;99.90
20345;DHT22;10330;48.816;9.278;2023-02-14T01:49:37;0.80;99.90
20345;DHT22;10330;48.816;9.278;2023-02-14T01:52:09;0.90;99.90
20345;DHT22;10330;48.816;9.278;2023-02-14T01:54:38;0.80;99.90
20345;DHT22;10330;48.816;9.278;2023-02-14T01:57:09;0.80;99.90
20345;DHT22;10330;48.816;9.278;2023-02-14T01:59:41;0.80;99.90
20345;DHT22;10330;48.816;9.278;2023-02-14T02:02:09;0.70;99.90
20345;DHT22;10330;48.816;9.278;2023-02-14T02:04:39;0.70;99.90
20345;DHT22;10330;48.816;9.278;2023-02-14T02:07:09;0.70;99.90
20345;DHT22;10330;48.816;9.278;2023-02-14T02:09:47;0.60;99.90
20345;DHT22;10330;48.816;9.278;2023-02-14T02:12:15;0.60;99.90
20345;DHT22;10330;48.816;9.278;2023-02-14T02:14:42;0.70;99.90
20345;DHT22;10330;48.816;9.278;2023-02-14T02:17:24;0.60;99.90
20345;DHT22;10330;48.816;9.278;2023-02-14T02:48:20;0.50;99.90
20345;DHT22;10330;48.816;9.278;2023-02-14T02:50:52;0.60;99.90
20345;DHT22;10330;48.816;9.278;2023-02-14T02:53:53;0.60;99.90
20345;DHT22;10330;48.816;9.278;2023-02-14T02:56:36;0.50;99.90
20345;DHT22;10330;48.816;9.278;2023-02-14T03:02:19;0.50;99.90
20345;DHT22;10330;48.816;9.278;2023-02-14T03:04:56;0.50;99.90
20345;DHT22;10330;48.816;9.278;2023-02-14T03:07:37;0.50;99.90
20345;DHT22;10330;48.816;9.278;2023-02-14T03:10:19;0.50;99.90
20345;DHT22;10330;48.816;9.278;2023-02-14T03:23:48;0.40;99.90
20345;DHT22;10330;48.816;9.278;2023-02-14T03:26:50;0.40;99.90
20345;DHT22;10330;48.816;9.278;2023-02-14T03:29:27;0.30;99.90
20345;DHT22;10330;48.816;9.278;2023-02-14T03:32:01;0.30;99.90
20345;DHT22;10330;48.816;9.278;2023-02-14T03:34:47;0.30;99.90
20345;DHT22;10330;48.816;9.278;2023-02-14T03:40:11;0.20;99.90
20345;DHT22;10330;48.816;9.278;2023-02-14T03:42:47;0.30;99.90
20345;DHT22;10330;48.816;9.278;2023-02-14T03:45:31;0.20;99.90
20345;DHT22;10330;48.816;9.278;2023-02-14T03:48:02;0.20;99.90
20345;DHT22;10330;48.816;9.278;2023-02-14T03:50:30;0.20;99.90
20345;DHT22;10330;48.816;9.278;2023-02-14T03:52:58;0.20;99.90
20345;DHT22;10330;48.816;9.278;2023-02-14T03:55:39;0.20;99.90
20345;DHT22;10330;48.816;9.278;2023-02-14T03:58:15;0.20;99.90
20345;DHT22;10330;48.816;9.278;2023-02-14T04:00:44;0.20;99.90
20345;DHT22;10330;48.816;9.278;2023-02-14T04:03:14;0.20;99.90
20345;DHT22;10330;48.816;9.278;2023-02-14T04:05:44;0.20;99.90
20345;DHT22;10330;48.816;9.278;2023-02-14T04:08:22;0.20;99.90
20345;DHT22;10330;48.816;9.278;2023-02-14T04:10:50;0.20;99.90
20345;DHT22;10330;48.816;9.278;2023-02-14T04:13:16;0.20;99.90
20345;DHT22;10330;48.816;9.278;2023-02-14T04:15:42;0.20;99.90
20345;DHT22;10330;48.816;9.278;2023-02-14T04:18:09;0.20;99.90
20345;DHT22;10330;48.816;9.278;2023-02-14T04:20:53;0.20;99.90
20345;DHT22;10330;48.816;9.278;2023-02-14T04:23:19;0.20;99.90
20345;DHT22;10330;48.816;9.278;2023-02-14T04:25:45;0.10;99.90
20345;DHT22;10330;48.816;9.278;2023-02-14T04:28:12;0.20;99.90
20345;DHT22;10330;48.816;9.278;2023-02-14T04:30:38;0.10;99.90
20345;DHT22;10330;48.816;9.278;2023-02-14T04:33:05;0.10;99.90
20345;DHT22;10330;48.816;9.278;2023-02-14T04:35:33;0.10;99.90
20345;DHT22;10330;48.816;9.278;2023-02-14T04:38:01;0.10;99.90
20345;DHT22;10330;48.816;9.278;2023-02-14T04:40:27;0.10;99.90
20345;DHT22;10330;48.816;9.278;2023-02-14T04:42:54;0.10;99.90
20345;DHT22;10330;48.816;9.278;2023-02-14T04:45:20;0.10;99.90
20345;DHT22;10330;48.816;9.278;2023-02-14T04:47:46;0.10;99.90
20345;DHT22;10330;48.816;9.278;2023-02-14T04:50:13;0.10;99.90
20345;DHT22;10330;48.816;9.278;2023-02-14T04:52:40;0.10;99.90
20345;DHT22;10330;48.816;9.278;2023-02-14T04:55:08;0.00;99.90
20345;DHT22;10330;48.816;9.278;2023-02-14T04:57:35;0.00;99.90
20345;DHT22;10330;48.816;9.278;2023-02-14T05:00:02;0.00;99.90
20345;DHT22;10330;48.816;9.278;2023-02-14T05:02:29;0.00;99.90
20345;DHT22;10330;48.816;9.278;2023-02-14T05:04:55;0.00;99.90
20345;DHT22;10330;48.816;9.278;2023-02-14T05:07:21;0.00;99.90
20345;DHT22;10330;48.816;9.278;2023-02-14T05:09:47;0.10;99.90
20345;DHT22;10330;48.816;9.278;2023-02-14T05:12:14;0.00;99.90
20345;DHT22;10330;48.816;9.278;2023-02-14T05:14:41;0.00;99.90
20345;DHT22;10330;48.816;9.278;2023-02-14T05:17:07;0.00;99.90
20345;DHT22;10330;48.816;9.278;2023-02-14T05:19:33;0.00;99.90
20345;DHT22;10330;48.816;9.278;2023-02-14T05:21:59;0.00;99.90
20345;DHT22;10330;48.816;9.278;2023-02-14T05:24:25;0.00;99.90
20345;DHT22;10330;48.816;9.278;2023-02-14T05:26:51;-0.10;99.90
20345;DHT22;10330;48.816;9.278;2023-02-14T05:29:17;-0.10;99.90
20345;DHT22;10330;48.816;9.278;2023-02-14T05:31:43;-0.10;99.90
20345;DHT22;10330;48.816;9.278;2023-02-14T05:34:13;-0.10;99.90
20345;DHT22;10330;48.816;9.278;2023-02-14T05:36:39;-0.10;99.90
20345;DHT22;10330;48.816;9.278;2023-02-14T05:39:05;-0.10;99.90
20345;DHT22;10330;48.816;9.278;2023-02-14T05:41:31;-0.10;99.90
20345;DHT22;10330;48.816;9.278;2023-02-14T05:43:57;-0.10;99.90
20345;DHT22;10330;48.816;9.278;2023-02-14T05:46:23;-0.20;99.90
20345;DHT22;10330;48.816;9.278;2023-02-14T05:55:41;-0.10;99.90
20345;DHT22;10330;48.816;9.278;2023-02-14T06:32:59;-0.30;99.90
20345;DHT22;10330;48.816;9.278;2023-02-14T06:58:59;-0.20;99.90
20345;DHT22;10330;48.816;9.278;2023-02-14T07:06:20;-0.10;99.90
20345;DHT22;10330;48.816;9.278;2023-02-14T07:08:50;-0.10;99.90
20345;DHT22;10330;48.816;9.278;2023-02-14T07:14:39;0.00;99.90
20345;DHT22;10330;48.816;9.278;2023-02-14T07:59:36;0.40;99.90
20345;DHT22;10330;48.816;9.278;2023-02-14T08:02:02;0.50;99.90
20345;DHT22;10330;48.816;9.278;2023-02-14T08:41:48;1.40;99.90
20345;DHT22;10330;48.816;9.278;2023-02-14T08:52:37;1.70;99.90
20345;DHT22;10330;48.816;9.278;2023-02-14T09:06:47;2.00;99.90
20345;DHT22;10330;48.816;9.278;2023-02-14T09:09:38;2.20;99.90
20345;DHT22;10330;48.816;9.278;2023-02-14T09:12:58;2.30;99.90
20345;DHT22;10330;48.816;9.278;2023-02-14T09:15:25;2.30;99.90
20345;DHT22;10330;48.816;9.278;2023-02-14T09:17:56;2.40;99.90
20345;DHT22;10330;48.816;9.278;2023-02-14T09:20:23;2.50;99.90
20345;DHT22;10330;48.816;9.278;2023-02-14T09:22:50;2.60;99.90
20345;DHT22;10330;48.816;9.278;2023-02-14T09:25:28;2.60;99.90
20345;DHT22;10330;48.816;9.278;2023-02-14T09:28:04;2.70;99.90
20345;DHT22;10330;48.816;9.278;2023-02-14T09:33:32;2.90;99.90
20345;DHT22;10330;48.816;9.278;2023-02-14T09:39:40;3.00;99.90
20345;DHT22;10330;48.816;9.278;2023-02-14T09:42:50;3.10;99.90
20345;DHT22;10330;48.816;9.278;2023-02-14T09:45:50;3.20;99.90
20345;DHT22;10330;48.816;9.278;2023-02-14T09:48:43;3.30;99.90
20345;DHT22;10330;48.816;9.278;2023-02-14T09:51:22;3.40;99.90
20345;DHT22;10330;48.816;9.278;2023-02-14T09:54:27;3.50;99.90
20345;DHT22;10330;48.816;9.278;2023-02-14T10:01:11;3.60;99.90
20345;DHT22;10330;48.816;9.278;2023-02-14T10:15:24;4.00;99.90
20345;DHT22;10330;48.816;9.278;2023-02-14T10:19:01;4.10;99.90
20345;DHT22;10330;48.816;9.278;2023-02-14T10:21:51;4.20;99.90
20345;DHT22;10330;48.816;9.278;2023-02-14T10:24:58;4.30;99.90
20345;DHT22;10330;48.816;9.278;2023-02-14T10:27:37;4.40;99.90
20345;DHT22;10330;48.816;9.278;2023-02-14T10:30:22;4.60;99.90
20345;DHT22;10330;48.816;9.278;2023-02-14T10:33:02;4.70;99.90
20345;DHT22;10330;48.816;9.278;2023-02-14T10:50:00;6.60;99.90
20345;DHT22;10330;48.816;9.278;2023-02-14T11:06:20;7.90;99.90
20345;DHT22;10330;48.816;9.278;2023-02-14T11:08:53;8.40;99.90
20345;DHT22;10330;48.816;9.278;2023-02-14T11:23:50;10.10;99.90
20345;DHT22;10330;48.816;9.278;2023-02-14T11:26:29;10.30;99.90
20345;DHT22;10330;48.816;9.278;2023-02-14T11:29:46;10.90;99.90
20345;DHT22;10330;48.816;9.278;2023-02-14T11:39:43;12.10;99.90
20345;DHT22;10330;48.816;9.278;2023-02-14T11:42:12;12.20;99.90
20345;DHT22;10330;48.816;9.278;2023-02-14T11:44:55;12.70;99.90
20345;DHT22;10330;48.816;9.278;2023-02-14T11:47:32;13.10;99.90
20345;DHT22;10330;48.816;9.278;2023-02-14T11:50:22;13.50;99.90
20345;DHT22;10330;48.816;9.278;2023-02-14T11:52:54;13.70;99.90
20345;DHT22;10330;48.816;9.278;2023-02-14T11:55:27;13.70;99.90
20345;DHT22;10330;48.816;9.278;2023-02-14T11:57:54;13.70;99.90
20345;DHT22;10330;48.816;9.278;2023-02-14T12:00:22;13.90;99.90
20345;DHT22;10330;48.816;9.278;2023-02-14T12:02:52;14.30;99.90
20345;DHT22;10330;48.816;9.278;2023-02-14T12:05:24;14.60;99.90
20345;DHT22;10330;48.816;9.278;2023-02-14T12:08:04;14.90;99.90
20345;DHT22;10330;48.816;9.278;2023-02-14T12:10:40;15.20;99.90
20345;DHT22;10330;48.816;9.278;2023-02-14T12:13:32;15.40;99.90
20345;DHT22;10330;48.816;9.278;2023-02-14T12:19:01;15.70;99.90
20345;DHT22;10330;48.816;9.278;2023-02-14T12:21:55;16.00;99.90
20345;DHT22;10330;48.816;9.278;2023-02-14T12:24:29;16.40;99.90
20345;DHT22;10330;48.816;9.278;2023-02-14T12:27:26;16.60;99.90
20345;DHT22;10330;48.816;9.278;2023-02-14T12:30:18;16.30;99.90
20345;DHT22;10330;48.816;9.278;2023-02-14T12:32:53;16.60;99.90
20345;DHT22;10330;48.816;9.278;2023-02-14T12:46:18;17.50;99.90
20345;DHT22;10330;48.816;9.278;2023-02-14T12:49:21;18.00;99.90
20345;DHT22;10330;48.816;9.278;2023-02-14T12:55:38;18.60;99.90
20345;DHT22;10330;48.816;9.278;2023-02-14T13:06:43;18.60;99.90
20345;DHT22;10330;48.816;9.278;2023-02-14T13:17:39;18.80;99.90
20345;DHT22;10330;48.816;9.278;2023-02-14T13:23:39;19.00;99.90
20345;DHT22;10330;48.816;9.278;2023-02-14T13:26:10;19.00;99.90
20345;DHT22;10330;48.816;9.278;2023-02-14T13:28:37;19.00;99.90
20345;DHT22;10330;48.816;9.278;2023-02-14T13:31:10;19.10;99.90
20345;DHT22;10330;48.816;9.278;2023-02-14T13:33:40;19.00;99.90
20345;DHT22;10330;48.816;9.278;2023-02-14T13:36:09;19.00;99.90
20345;DHT22;10330;48.816;9.278;2023-02-14T13:38:45;19.00;99.90
20345;DHT22;10330;48.816;9.278;2023-02-14T13:41:17;19.10;99.90
20345;DHT22;10330;48.816;9.278;2023-02-14T13:49:00;19.00;99.90
20345;DHT22;10330;48.816;9.278;2023-02-14T13:51:46;19.00;99.90
20345;DHT22;10330;48.816;9.278;2023-02-14T13:54:32;19.00;99.90
20345;DHT22;10330;48.816;9.278;2023-02-14T13:57:22;18.90;99.90
20345;DHT22;10330;48.816;9.278;2023-02-14T14:10:59;19.10;99.90
20345;DHT22;10330;48.816;9.278;2023-02-14T14:13:58;18.70;99.90
20345;DHT22;10330;48.816;9.278;2023-02-14T14:16:31;18.70;99.90
20345;DHT22;10330;48.816;9.278;2023-02-14T14:22:02;18.80;99.90
20345;DHT22;10330;48.816;9.278;2023-02-14T14:24:33;18.70;99.90
20345;DHT22;10330;48.816;9.278;2023-02-14T14:27:31;18.50;99.90
20345;DHT22;10330;48.816;9.278;2023-02-14T14:30:00;18.40;99.90
20345;DHT22;10330;48.816;9.278;2023-02-14T14:32:37;18.30;99.90
20345;DHT22;10330;48.816;9.278;2023-02-14T14:37:52;18.10;99.90
20345;DHT22;10330;48.816;9.278;2023-02-14T14:42:45;18.00;99.90
20345;DHT22;10330;48.816;9.278;2023-02-14T14:45:28;17.80;99.90
20345;DHT22;10330;48.816;9.278;2023-02-14T14:47:57;17.60;99.90
20345;DHT22;10330;48.816;9.278;2023-02-14T14:50:29;17.50;99.90
20345;DHT22;10330;48.816;9.278;2023-02-14T14:53:07;17.30;99.90
20345;DHT22;10330;48.816;9.278;2023-02-14T14:55:36;17.20;99.90
20345;DHT22;10330;48.816;9.278;2023-02-14T14:58:33;17.10;99.90
20345;DHT22;10330;48.816;9.278;2023-02-14T15:01:00;17.00;99.90
20345;DHT22;10330;48.816;9.278;2023-02-14T15:03:27;16.80;99.90
20345;DHT22;10330;48.816;9.278;2023-02-14T15:08:31;16.80;99.90
20345;DHT22;10330;48.816;9.278;2023-02-14T15:11:11;16.50;99.90
20345;DHT22;10330;48.816;9.278;2023-02-14T15:14:00;16.30;99.90
20345;DHT22;10330;48.816;9.278;2023-02-14T15:16:28;16.20;99.90
20345;DHT22;10330;48.816;9.278;2023-02-14T15:19:04;16.00;99.90
20345;DHT22;10330;48.816;9.278;2023-02-14T15:21:32;15.60;99.90
20345;DHT22;10330;48.816;9.278;2023-02-14T15:24:13;15.30;99.90
20345;DHT22;10330;48.816;9.278;2023-02-14T15:26:43;14.90;99.90
20345;DHT22;10330;48.816;9.278;2023-02-14T15:29:29;14.50;99.90
20345;DHT22;10330;48.816;9.278;2023-02-14T15:31:59;14.10;99.90
20345;DHT22;10330;48.816;9.278;2023-02-14T15:34:32;13.70;99.90
20345;DHT22;10330;48.816;9.278;2023-02-14T15:37:01;13.30;99.90
20345;DHT22;10330;48.816;9.278;2023-02-14T15:39:36;12.90;99.90
20345;DHT22;10330;48.816;9.278;2023-02-14T15:42:05;12.60;99.90
20345;DHT22;10330;48.816;9.278;2023-02-14T15:44:42;12.20;99.90
20345;DHT22;10330;48.816;9.278;2023-02-14T15:47:12;12.00;99.90
20345;DHT22;10330;48.816;9.278;2023-02-14T15:49:42;11.80;99.90
20345;DHT22;10330;48.816;9.278;2023-02-14T15:52:12;11.40;99.90
20345;DHT22;10330;48.816;9.278;2023-02-14T15:54:44;11.30;99.90
20345;DHT22;10330;48.816;9.278;2023-02-14T15:57:19;11.10;99.90
20345;DHT22;10330;48.816;9.278;2023-02-14T15:59:46;10.90;99.90
20345;DHT22;10330;48.816;9.278;2023-02-14T16:02:29;10.70;99.90
20345;DHT22;10330;48.816;9.278;2023-02-14T16:05:06;10.50;99.90
20345;DHT22;10330;48.816;9.278;2023-02-14T16:07:34;10.40;99.90
20345;DHT22;10330;48.816;9.278;2023-02-14T16:10:20;10.30;99.90
20345;DHT22;10330;48.816;9.278;2023-02-14T16:12:54;10.00;99.90
20345;DHT22;10330;48.816;9.278;2023-02-14T16:15:23;9.90;99.90
20345;DHT22;10330;48.816;9.278;2023-02-14T16:17:49;9.90;99.90
20345;DHT22;10330;48.816;9.278;2023-02-14T16:22:49;9.70;99.90
20345;DHT22;10330;48.816;9.278;2023-02-14T16:25:15;9.60;99.90
20345;DHT22;10330;48.816;9.278;2023-02-14T16:27:41;9.50;99.90
20345;DHT22;10330;48.816;9.278;2023-02-14T16:30:17;9.20;99.90
20345;DHT22;10330;48.816;9.278;2023-02-14T16:32:48;9.20;99.90
20345;DHT22;10330;48.816;9.278;2023-02-14T16:35:18;9.00;99.90
20345;DHT22;10330;48.816;9.278;2023-02-14T16:37:45;8.90;99.90
20345;DHT22;10330;48.816;9.278;2023-02-14T16:40:13;8.70;99.90
20345;DHT22;10330;48.816;9.278;2023-02-14T16:42:40;8.70;99.90
20345;DHT22;10330;48.816;9.278;2023-02-14T16:45:12;8.40;99.90
20345;DHT22;10330;48.816;9.278;2023-02-14T16:47:39;8.40;99.90
20345;DHT22;10330;48.816;9.278;2023-02-14T16:54:04;8.10;99.90
20345;DHT22;10330;48.816;9.278;2023-02-14T16:56:42;8.00;99.90
20345;DHT22;10330;48.816;9.278;2023-02-14T16:59:21;7.80;99.90
20345;DHT22;10330;48.816;9.278;2023-02-14T17:01:48;7.80;99.90
20345;DHT22;10330;48.816;9.278;2023-02-14T17:04:15;7.70;99.90
20345;DHT22;10330;48.816;9.278;2023-02-14T17:06:48;7.70;99.90
20345;DHT22;10330;48.816;9.278;2023-02-14T17:09:20;7.60;99.90
20345;DHT22;10330;48.816;9.278;2023-02-14T17:11:53;7.50;99.90
20345;DHT22;10330;48.816;9.278;2023-02-14T17:14:30;7.50;99.90
20345;DHT22;10330;48.816;9.278;2023-02-14T17:16:58;7.40;99.90
20345;DHT22;10330;48.816;9.278;2023-02-14T17:19:31;7.30;99.90
20345;DHT22;10330;48.816;9.278;2023-02-14T17:22:01;7.40;99.90
20345;DHT22;10330;48.816;9.278;2023-02-14T17:24:30;7.20;99.90
20345;DHT22;10330;48.816;9.278;2023-02-14T17:26:56;7.20;99.90
20345;DHT22;10330;48.816;9.278;2023-02-14T17:29:22;7.10;99.90
20345;DHT22;10330;48.816;9.278;2023-02-14T17:31:49;7.10;99.90
20345;DHT22;10330;48.816;9.278;2023-02-14T17:34:15;7.10;99.90
20345;DHT22;10330;48.816;9.278;2023-02-14T17:36:42;7.10;99.90
20345;DHT22;10330;48.816;9.278;2023-02-14T17:39:09;7.10;99.90
20345;DHT22;10330;48.816;9.278;2023-02-14T17:41:36;7.10;99.90
20345;DHT22;10330;48.816;9.278;2023-02-14T17:44:02;6.90;99.90
20345;DHT22;10330;48.816;9.278;2023-02-14T17:46:30;6.80;99.90
20345;DHT22;10330;48.816;9.278;2023-02-14T17:48:57;6.80;99.90
20345;DHT22;10330;48.816;9.278;2023-02-14T17:51:24;6.70;99.90
20345;DHT22;10330;48.816;9.278;2023-02-14T17:53:51;6.70;99.90
20345;DHT22;10330;48.816;9.278;2023-02-14T17:56:24;6.60;99.90
20345;DHT22;10330;48.816;9.278;2023-02-14T17:58:59;6.60;99.90
20345;DHT22;10330;48.816;9.278;2023-02-14T18:01:28;6.70;99.90
20345;DHT22;10330;48.816;9.278;2023-02-14T18:03:56;6.50;99.90
20345;DHT22;10330;48.816;9.278;2023-02-14T18:09:09;6.50;99.90
20345;DHT22;10330;48.816;9.278;2023-02-14T18:11:38;6.50;99.90
20345;DHT22;10330;48.816;9.278;2023-02-14T18:14:13;6.40;99.90
20345;DHT22;10330;48.816;9.278;2023-02-14T18:16:43;6.40;99.90
20345;DHT22;10330;48.816;9.278;2023-02-14T18:19:09;6.40;99.90
20345;DHT22;10330;48.816;9.278;2023-02-14T18:21:38;6.30;99.90
20345;DHT22;10330;48.816;9.278;2023-02-14T18:28:03;6.20;99.90
20345;DHT22;10330;48.816;9.278;2023-02-14T18:30:29;6.20;99.90
20345;DHT22;10330;48.816;9.278;2023-02-14T18:32:56;6.10;99.90
20345;DHT22;10330;48.816;9.278;2023-02-14T18:35:22;6.00;99.90
20345;DHT22;10330;48.816;9.278;2023-02-14T18:37:48;6.00;99.90
20345;DHT22;10330;48.816;9.278;2023-02-14T18:40:29;6.00;99.90
20345;DHT22;10330;48.816;9.278;2023-02-14T18:43:07;6.00;99.90
20345;DHT22;10330;48.816;9.278;2023-02-14T18:45:45;5.90;99.90
20345;DHT22;10330;48.816;9.278;2023-02-14T18:48:15;5.80;99.90
20345;DHT22;10330;48.816;9.278;2023-02-14T18:50:41;5.80;99.90
20345;DHT22;10330;48.816;9.278;2023-02-14T18:53:31;5.80;99.90
20345;DHT22;10330;48.816;9.278;2023-02-14T18:56:36;5.80;99.90
20345;DHT22;10330;48.816;9.278;2023-02-14T18:59:41;5.70;99.90
20345;DHT22;10330;48.816;9.278;2023-02-14T19:02:08;5.70;99.90
20345;DHT22;10330;48.816;9.278;2023-02-14T19:04:34;5.70;99.90
20345;DHT22;10330;48.816;9.278;2023-02-14T19:07:04;5.60;99.90
20345;DHT22;10330;48.816;9.278;2023-02-14T19:10:15;5.60;99.90
20345;DHT22;10330;48.816;9.278;2023-02-14T19:12:41;5.50;99.90
20345;DHT22;10330;48.816;9.278;2023-02-14T19:15:08;5.60;99.90
20345;DHT22;10330;48.816;9.278;2023-02-14T19:17:37;5.40;99.90
20345;DHT22;10330;48.816;9.278;2023-02-14T19:20:04;5.40;99.90
20345;DHT22;10330;48.816;9.278;2023-02-14T19:22:37;5.40;99.90
20345;DHT22;10330;48.816;9.278;2023-02-14T19:25:04;5.30;99.90
20345;DHT22;10330;48.816;9.278;2023-02-14T19:27:31;5.30;99.90
20345;DHT22;10330;48.816;9.278;2023-02-14T19:30:20;5.30;99.90
20345;DHT22;10330;48.816;9.278;2023-02-14T19:32:50;5.30;99.90
20345;DHT22;10330;48.816;9.278;2023-02-14T19:35:52;5.20;99.90
20345;DHT22;10330;48.816;9.278;2023-02-14T19:38:30;5.10;99.90
20345;DHT22;10330;48.816;9.278;2023-02-14T19:41:05;5.20;99.90
20345;DHT22;10330;48.816;9.278;2023-02-14T19:43:50;5.00;99.90
20345;DHT22;10330;48.816;9.278;2023-02-14T19:46:19;5.10;99.90
20345;DHT22;10330;48.816;9.278;2023-02-14T19:48:45;5.00;99.90
20345;DHT22;10330;48.816;9.278;2023-02-14T19:51:20;5.00;99.90
20345;DHT22;10330;48.816;9.278;2023-02-14T19:53:47;5.00;99.90
20345;DHT22;10330;48.816;9.278;2023-02-14T19:56:18;5.00;99.90
20345;DHT22;10330;48.816;9.278;2023-02-14T19:58:47;4.90;99.90
20345;DHT22;10330;48.816;9.278;2023-02-14T20:01:40;4.90;99.90
20345;DHT22;10330;48.816;9.278;2023-02-14T20:04:09;4.80;99.90
20345;DHT22;10330;48.816;9.278;2023-02-14T20:06:36;4.70;99.90
20345;DHT22;10330;48.816;9.278;2023-02-14T20:09:16;4.70;99.90
20345;DHT22;10330;48.816;9.278;2023-02-14T20:11:45;4.60;99.90
20345;DHT22;10330;48.816;9.278;2023-02-14T20:14:29;4.50;99.90
20345;DHT22;10330;48.816;9.278;2023-02-14T20:17:34;4.50;99.90
20345;DHT22;10330;48.816;9.278;2023-02-14T20:20:10;4.40;99.90
20345;DHT22;10330;48.816;9.278;2023-02-14T20:22:39;4.30;99.90
20345;DHT22;10330;48.816;9.278;2023-02-14T20:25:06;4.30;99.90
20345;DHT22;10330;48.816;9.278;2023-02-14T20:27:39;4.30;99.90
20345;DHT22;10330;48.816;9.278;2023-02-14T20:30:08;4.30;99.90
20345;DHT22;10330;48.816;9.278;2023-02-14T20:32:35;4.30;99.90
20345;DHT22;10330;48.816;9.278;2023-02-14T20:35:01;4.30;99.90
20345;DHT22;10330;48.816;9.278;2023-02-14T20:37:28;4.20;99.90
20345;DHT22;10330;48.816;9.278;2023-02-14T20:39:54;4.20;99.90
20345;DHT22;10330;48.816;9.278;2023-02-14T20:42:20;4.20;99.90
20345;DHT22;10330;48.816;9.278;2023-02-14T20:44:53;4.10;99.90
20345;DHT22;10330;48.816;9.278;2023-02-14T20:47:27;4.00;99.90
20345;DHT22;10330;48.816;9.278;2023-02-14T20:49:55;4.10;99.90
20345;DHT22;10330;48.816;9.278;2023-02-14T20:52:21;4.10;99.90
20345;DHT22;10330;48.816;9.278;2023-02-14T20:54:48;4.00;99.90
20345;DHT22;10330;48.816;9.278;2023-02-14T20:57:14;4.00;99.90
20345;DHT22;10330;48.816;9.278;2023-02-14T20:59:40;4.10;99.90
20345;DHT22;10330;48.816;9.278;2023-02-14T21:02:09;4.00;99.90
20345;DHT22;10330;48.816;9.278;2023-02-14T21:04:36;4.00;99.90
20345;DHT22;10330;48.816;9.278;2023-02-14T21:07:03;3.90;99.90
20345;DHT22;10330;48.816;9.278;2023-02-14T21:09:33;3.90;99.90
20345;DHT22;10330;48.816;9.278;2023-02-14T21:12:04;3.80;99.90
20345;DHT22;10330;48.816;9.278;2023-02-14T21:14:50;3.80;99.90
20345;DHT22;10330;48.816;9.278;2023-02-14T21:17:17;3.80;99.90
20345;DHT22;10330;48.816;9.278;2023-02-14T21:19:46;3.70;99.90
20345;DHT22;10330;48.816;9.278;2023-02-14T21:22:19;3.70;99.90
20345;DHT22;10330;48.816;9.278;2023-02-14T21:24:54;3.70;99.90
20345;DHT22;10330;48.816;9.278;2023-02-14T21:27:29;3.70;99.90
20345;DHT22;10330;48.816;9.278;2023-02-14T21:30:16;3.60;99.90
20345;DHT22;10330;48.816;9.278;2023-02-14T21:32:42;3.60;99.90
20345;DHT22;10330;48.816;9.278;2023-02-14T21:35:26;3.50;99.90
20345;DHT22;10330;48.816;9.278;2023-02-14T21:37:53;3.60;99.90
20345;DHT22;10330;48.816;9.278;2023-02-14T21:40:19;3.60;99.90
20345;DHT22;10330;48.816;9.278;2023-02-14T21:42:46;3.50;99.90
20345;DHT22;10330;48.816;9.278;2023-02-14T21:45:12;3.50;99.90
20345;DHT22;10330;48.816;9.278;2023-02-14T21:47:57;3.50;99.90
20345;DHT22;10330;48.816;9.278;2023-02-14T21:50:42;3.40;99.90
20345;DHT22;10330;48.816;9.278;2023-02-14T21:53:08;3.40;99.90
20345;DHT22;10330;48.816;9.278;2023-02-14T21:55:34;3.40;99.90
20345;DHT22;10330;48.816;9.278;2023-02-14T21:58:02;3.30;99.90
20345;DHT22;10330;48.816;9.278;2023-02-14T22:00:29;3.40;99.90
20345;DHT22;10330;48.816;9.278;2023-02-14T22:02:55;3.30;99.90
20345;DHT22;10330;48.816;9.278;2023-02-14T22:05:21;3.30;99.90
20345;DHT22;10330;48.816;9.278;2023-02-14T22:07:49;3.30;99.90
20345;DHT22;10330;48.816;9.278;2023-02-14T22:10:16;3.20;99.90
20345;DHT22;10330;48.816;9.278;2023-02-14T22:12:42;3.30;99.90
20345;DHT22;10330;48.816;9.278;2023-02-14T22:15:08;3.40;99.90
20345;DHT22;10330;48.816;9.278;2023-02-14T22:17:41;3.30;99.90
20345;DHT22;10330;48.816;9.278;2023-02-14T22:20:12;3.20;99.90
20345;DHT22;10330;48.816;9.278;2023-02-14T22:22:53;3.10;99.90
20345;DHT22;10330;48.816;9.278;2023-02-14T22:25:23;3.10;99.90
20345;DHT22;10330;48.816;9.278;2023-02-14T22:27:50;3.00;99.90